Time;durP1;ratioP1;P1;durP2;ratioP2;P2;SDS_P1;SDS_P2;PMS_P1;PMS_P2;Temp;Humidity;BMP_temperature;BMP_pressure;BME280_temperature;BME280_humidity;BME280_pressure;Samples;Min_cycle;Max_cycle;Signal;HPM_P1;HPM_P2
2022/01/17 00:02:09;;;;;;;24.80;13.75;;;;;;;;;;4922915;29;20725;-62
2022/01/17 00:04:36;;;;;;;26.35;14.15;;;;;;;;;;4921419;29;20067;-62
2022/01/17 00:07:03;;;;;;;27.00;14.25;;;;;;;;;;4941217;29;20047;-62
2022/01/17 00:09:30;;;;;;;26.58;14.52;;;;;;;;;;4920346;29;20128;-62
2022/01/17 00:11:57;;;;;;;25.90;13.73;;;;;;;;;;4904472;29;20623;-62
2022/01/17 00:14:28;;;;;;;26.23;12.93;;;;;;;;;;4905772;29;20102;-62
2022/01/17 00:17:08;;;;;;;25.10;13.60;;;;;;;;;;4924330;29;20087;-62
2022/01/17 00:19:41;;;;;;;22.92;12.85;;;;;;;;;;4905221;29;20070;-62
2022/01/17 00:22:10;;;;;;;25.20;13.57;;;;;;;;;;4927163;29;20050;-62
2022/01/17 00:24:37;;;;;;;24.92;14.18;;;;;;;;;;4921715;29;20147;-62
2022/01/17 00:27:04;;;;;;;25.75;13.02;;;;;;;;;;4928063;29;20135;-62
2022/01/17 00:29:30;;;;;;;28.02;14.20;;;;;;;;;;4924527;29;20126;-62
2022/01/17 00:31:57;;;;;;;25.95;13.68;;;;;;;;;;4920527;29;20152;-62
2022/01/17 00:34:24;;;;;;;26.30;14.07;;;;;;;;;;4919059;29;20535;-62
2022/01/17 00:36:51;;;;;;;27.08;13.20;;;;;;;;;;4921908;29;20131;-62
2022/01/17 00:39:20;;;;;;;26.73;13.60;;;;;;;;;;4924894;29;20159;-62
2022/01/17 00:41:47;;;;;;;26.55;13.98;;;;;;;;;;4922712;29;20135;-62
2022/01/17 00:44:15;;;;;;;27.80;13.70;;;;;;;;;;4924250;29;20135;-62
2022/01/17 00:46:42;;;;;;;27.35;13.70;;;;;;;;;;4922702;29;20075;-62
2022/01/17 00:49:08;;;;;;;26.02;13.73;;;;;;;;;;4898007;29;20056;-62
2022/01/17 00:51:35;;;;;;;24.88;13.80;;;;;;;;;;4923218;29;20455;-62
2022/01/17 00:54:01;;;;;;;27.10;13.23;;;;;;;;;;4927251;29;20079;-62
2022/01/17 00:56:29;;;;;;;24.55;13.43;;;;;;;;;;4928322;29;20094;-62
2022/01/17 00:58:56;;;;;;;24.25;13.45;;;;;;;;;;4927942;29;20130;-62
2022/01/17 01:01:22;;;;;;;24.45;13.23;;;;;;;;;;4923700;29;20135;-62
2022/01/17 01:03:49;;;;;;;25.58;12.90;;;;;;;;;;4928624;29;20040;-62
2022/01/17 01:06:16;;;;;;;23.33;13.48;;;;;;;;;;4925596;29;20473;-62
2022/01/17 01:08:42;;;;;;;24.67;12.15;;;;;;;;;;4924669;29;20075;-61
2022/01/17 01:11:09;;;;;;;26.08;12.32;;;;;;;;;;4926657;29;20131;-62
2022/01/17 01:13:38;;;;;;;23.75;12.32;;;;;;;;;;4925663;29;20079;-62
2022/01/17 01:16:24;;;;;;;24.88;12.65;;;;;;;;;;4921070;29;20131;-62
2022/01/17 01:19:08;;;;;;;24.27;12.43;;;;;;;;;;4926483;29;20035;-62
2022/01/17 01:21:48;;;;;;;23.48;13.52;;;;;;;;;;4925190;29;20123;-62
2022/01/17 01:29:50;;;;;;;21.73;11.80;;;;;;;;;;4927790;29;20090;-62
2022/01/17 01:32:21;;;;;;;26.25;13.18;;;;;;;;;;4922363;29;20055;-62
2022/01/17 01:34:51;;;;;;;22.63;12.25;;;;;;;;;;4926343;29;20043;-62
2022/01/17 01:37:18;;;;;;;27.25;12.82;;;;;;;;;;4920577;29;20143;-62
2022/01/17 01:39:46;;;;;;;26.33;13.13;;;;;;;;;;4921711;29;20055;-62
2022/01/17 01:42:16;;;;;;;24.13;12.95;;;;;;;;;;4919309;29;20130;-62
2022/01/17 01:44:45;;;;;;;23.35;12.30;;;;;;;;;;4920007;29;20075;-62
2022/01/17 01:47:13;;;;;;;24.23;13.57;;;;;;;;;;4918238;29;20166;-62
2022/01/17 01:49:39;;;;;;;25.17;12.38;;;;;;;;;;4921071;29;20052;-62
2022/01/17 01:52:06;;;;;;;24.15;12.63;;;;;;;;;;4923213;29;20151;-62
2022/01/17 01:54:33;;;;;;;23.90;12.77;;;;;;;;;;4920264;29;20083;-62
2022/01/17 01:57:00;;;;;;;23.20;13.27;;;;;;;;;;4921516;29;21316;-62
2022/01/17 01:59:26;;;;;;;25.88;11.60;;;;;;;;;;4918773;29;20059;-62
2022/01/17 02:01:54;;;;;;;25.65;12.20;;;;;;;;;;4918361;29;20123;-62
2022/01/17 02:04:21;;;;;;;27.67;12.60;;;;;;;;;;4919135;29;20057;-61
2022/01/17 02:06:47;;;;;;;20.88;11.50;;;;;;;;;;4922837;29;20079;-62
2022/01/17 02:09:14;;;;;;;21.63;11.60;;;;;;;;;;4921149;29;20580;-62
2022/01/17 02:11:42;;;;;;;21.23;9.95;;;;;;;;;;4923745;29;20126;-62
2022/01/17 02:14:08;;;;;;;23.77;10.70;;;;;;;;;;4923952;29;20178;-62
2022/01/17 02:16:37;;;;;;;20.80;10.95;;;;;;;;;;4920649;29;20524;-62
2022/01/17 02:19:05;;;;;;;21.63;10.73;;;;;;;;;;4925595;29;20059;-62
2022/01/17 02:21:44;;;;;;;23.52;11.85;;;;;;;;;;4926908;29;20044;-62
2022/01/17 02:24:11;;;;;;;23.10;11.15;;;;;;;;;;4927521;29;20044;-62
2022/01/17 02:26:37;;;;;;;22.70;10.90;;;;;;;;;;4930311;29;20060;-61
2022/01/17 02:29:05;;;;;;;21.95;10.75;;;;;;;;;;4926904;29;20138;-62
2022/01/17 02:50:45;;;;;;;21.17;10.18;;;;;;;;;;4923878;29;20060;-62
2022/01/17 02:53:12;;;;;;;20.58;9.60;;;;;;;;;;4926777;29;20190;-62
2022/01/17 02:55:40;;;;;;;20.55;10.25;;;;;;;;;;4923488;29;20151;-62
2022/01/17 02:58:07;;;;;;;17.63;9.38;;;;;;;;;;4922488;29;20143;-62
2022/01/17 03:00:40;;;;;;;19.08;9.70;;;;;;;;;;4925010;29;20079;-62
2022/01/17 03:03:09;;;;;;;20.98;9.95;;;;;;;;;;4924325;29;20051;-61
2022/01/17 03:05:36;;;;;;;17.88;9.35;;;;;;;;;;4923741;29;20674;-62
2022/01/17 03:08:04;;;;;;;17.17;8.80;;;;;;;;;;4924476;29;20151;-62
2022/01/17 03:10:39;;;;;;;16.73;9.15;;;;;;;;;;4927234;29;20126;-62
2022/01/17 03:13:07;;;;;;;15.15;8.48;;;;;;;;;;4924660;29;20052;-62
2022/01/17 03:15:33;;;;;;;18.48;8.95;;;;;;;;;;4923995;29;20066;-62
2022/01/17 03:18:00;;;;;;;16.50;9.35;;;;;;;;;;4922845;29;20130;-60
2022/01/17 03:20:27;;;;;;;19.38;8.10;;;;;;;;;;4923484;29;20689;-62
2022/01/17 03:22:53;;;;;;;13.77;7.88;;;;;;;;;;4926708;29;20043;-62
2022/01/17 03:25:21;;;;;;;15.82;9.10;;;;;;;;;;4921736;29;20134;-62
2022/01/17 03:27:48;;;;;;;21.48;9.40;;;;;;;;;;4922981;29;20043;-62
2022/01/17 03:30:15;;;;;;;16.67;9.13;;;;;;;;;;4921702;29;20552;-62
2022/01/17 03:32:41;;;;;;;21.08;10.15;;;;;;;;;;4924291;29;20052;-61
2022/01/17 03:35:09;;;;;;;16.80;8.10;;;;;;;;;;4926154;29;20756;-62
2022/01/17 03:37:35;;;;;;;16.95;9.13;;;;;;;;;;4925253;29;20134;-62
2022/01/17 03:40:02;;;;;;;17.60;7.70;;;;;;;;;;4921176;29;20062;-62
2022/01/17 03:42:30;;;;;;;16.38;8.57;;;;;;;;;;4923806;29;20648;-62
2022/01/17 03:44:56;;;;;;;17.77;8.57;;;;;;;;;;4924420;29;20118;-62
2022/01/17 03:47:23;;;;;;;14.82;8.75;;;;;;;;;;4925065;29;20040;-61
2022/01/17 03:49:50;;;;;;;14.55;8.15;;;;;;;;;;4932891;28;20135;-62
2022/01/17 03:52:16;;;;;;;21.23;9.35;;;;;;;;;;4940617;29;20424;-62
2022/01/17 03:54:43;;;;;;;17.25;9.40;;;;;;;;;;4943337;29;21719;-61
2022/01/17 03:57:09;;;;;;;16.15;8.20;;;;;;;;;;4940942;29;20760;-62
2022/01/17 03:59:37;;;;;;;17.85;7.38;;;;;;;;;;4946260;29;20069;-62
2022/01/17 04:02:04;;;;;;;17.58;8.93;;;;;;;;;;4944528;29;20420;-62
2022/01/17 04:04:31;;;;;;;16.23;8.18;;;;;;;;;;4942424;29;20052;-62
2022/01/17 04:06:58;;;;;;;12.70;8.70;;;;;;;;;;4942760;29;20055;-62
2022/01/17 04:09:24;;;;;;;12.95;7.55;;;;;;;;;;4941307;29;20151;-62
2022/01/17 04:11:51;;;;;;;18.50;9.40;;;;;;;;;;4942091;29;20084;-61
2022/01/17 04:14:17;;;;;;;18.35;7.72;;;;;;;;;;4943467;29;20083;-62
2022/01/17 04:16:45;;;;;;;15.20;8.32;;;;;;;;;;4941046;29;20051;-61
2022/01/17 04:19:12;;;;;;;17.48;8.95;;;;;;;;;;4938846;29;20143;-62
2022/01/17 04:21:39;;;;;;;17.65;8.27;;;;;;;;;;4940665;29;20043;-62
2022/01/17 04:24:06;;;;;;;17.20;7.93;;;;;;;;;;4938480;29;21479;-62
2022/01/17 04:26:32;;;;;;;16.13;8.68;;;;;;;;;;4940087;28;20047;-62
2022/01/17 04:28:59;;;;;;;15.38;8.25;;;;;;;;;;4943872;29;20047;-61
2022/01/17 04:31:26;;;;;;;16.38;8.45;;;;;;;;;;4942855;29;20126;-62
2022/01/17 04:33:54;;;;;;;16.73;7.55;;;;;;;;;;4942185;29;20055;-62
2022/01/17 04:36:21;;;;;;;19.23;8.30;;;;;;;;;;4942633;29;20070;-62
2022/01/17 04:38:48;;;;;;;16.55;9.05;;;;;;;;;;4946334;29;20130;-62
2022/01/17 04:41:17;;;;;;;18.30;9.32;;;;;;;;;;4941493;29;20051;-62
2022/01/17 04:46:26;;;;;;;17.40;8.27;;;;;;;;;;4942363;29;20950;-62
2022/01/17 04:48:54;;;;;;;19.20;9.27;;;;;;;;;;4942602;29;20085;-62
2022/01/17 04:51:21;;;;;;;17.10;8.27;;;;;;;;;;4944126;29;20141;-62
2022/01/17 04:54:08;;;;;;;15.32;7.90;;;;;;;;;;4945948;29;20066;-62
2022/01/17 04:56:34;;;;;;;17.50;8.73;;;;;;;;;;4946132;29;20055;-62
2022/01/17 04:59:01;;;;;;;16.73;8.75;;;;;;;;;;4942439;29;20189;-62
2022/01/17 05:01:27;;;;;;;14.35;8.05;;;;;;;;;;4938639;29;20139;-63
2022/01/17 05:03:55;;;;;;;16.35;8.25;;;;;;;;;;4943727;29;20045;-63
2022/01/17 05:06:22;;;;;;;16.13;8.95;;;;;;;;;;4946573;29;20614;-62
2022/01/17 05:08:49;;;;;;;18.20;8.60;;;;;;;;;;4945178;29;20047;-62
2022/01/17 05:11:15;;;;;;;16.13;8.90;;;;;;;;;;4915488;29;20131;-59
2022/01/17 05:13:46;;;;;;;17.55;9.25;;;;;;;;;;4938631;29;20472;-61
2022/01/17 05:16:15;;;;;;;14.15;8.57;;;;;;;;;;4939574;29;20583;-62
2022/01/17 05:21:27;;;;;;;16.88;9.40;;;;;;;;;;4945757;29;20855;-62
2022/01/17 05:23:54;;;;;;;17.90;9.65;;;;;;;;;;4924955;29;20136;-62
2022/01/17 05:26:20;;;;;;;17.92;8.88;;;;;;;;;;4942076;29;20070;-62
2022/01/17 05:28:47;;;;;;;17.33;8.07;;;;;;;;;;4946381;29;20131;-62
2022/01/17 05:31:15;;;;;;;17.10;7.88;;;;;;;;;;4942611;29;20150;-62
2022/01/17 05:33:42;;;;;;;16.55;8.23;;;;;;;;;;4947999;29;20447;-62
2022/01/17 05:36:09;;;;;;;16.15;8.85;;;;;;;;;;4943430;29;20462;-61
2022/01/17 05:38:36;;;;;;;16.25;9.23;;;;;;;;;;4921630;29;20126;-62
2022/01/17 05:41:03;;;;;;;16.15;8.85;;;;;;;;;;4944816;29;20079;-62
2022/01/17 05:43:30;;;;;;;13.63;7.88;;;;;;;;;;4942558;29;20135;-62
2022/01/17 05:45:56;;;;;;;12.75;7.30;;;;;;;;;;4945227;29;20119;-62
2022/01/17 05:48:23;;;;;;;13.82;7.78;;;;;;;;;;4937128;29;20122;-62
2022/01/17 05:50:50;;;;;;;13.02;7.40;;;;;;;;;;4942005;29;20131;-62
2022/01/17 05:53:17;;;;;;;14.65;8.43;;;;;;;;;;4936860;29;20067;-62
2022/01/17 05:55:45;;;;;;;18.38;8.35;;;;;;;;;;4939485;29;20131;-62
2022/01/17 05:58:12;;;;;;;15.98;8.45;;;;;;;;;;4945614;29;20547;-62
2022/01/17 06:00:39;;;;;;;16.50;7.97;;;;;;;;;;4942758;29;20166;-62
2022/01/17 06:03:06;;;;;;;12.55;6.95;;;;;;;;;;4939466;29;20127;-62
2022/01/17 06:05:32;;;;;;;13.98;7.63;;;;;;;;;;4934963;29;20051;-62
2022/01/17 06:07:59;;;;;;;16.40;7.55;;;;;;;;;;4937156;29;20134;-62
2022/01/17 06:10:25;;;;;;;15.05;7.72;;;;;;;;;;4938455;29;20429;-62
2022/01/17 06:12:53;;;;;;;15.85;8.45;;;;;;;;;;4942973;29;20130;-62
2022/01/17 06:15:20;;;;;;;16.15;7.68;;;;;;;;;;4941670;29;20119;-62
2022/01/17 06:17:47;;;;;;;14.35;8.10;;;;;;;;;;4943346;29;20079;-62
2022/01/17 06:20:14;;;;;;;15.55;7.32;;;;;;;;;;4918757;29;20134;-62
2022/01/17 06:22:40;;;;;;;15.35;8.15;;;;;;;;;;4946651;29;20381;-62
2022/01/17 06:25:08;;;;;;;15.13;8.82;;;;;;;;;;4945209;29;20575;-62
2022/01/17 06:27:34;;;;;;;16.83;7.97;;;;;;;;;;4946674;29;20564;-62
2022/01/17 06:30:02;;;;;;;16.00;7.90;;;;;;;;;;4945525;29;20085;-62
2022/01/17 06:32:30;;;;;;;15.10;8.05;;;;;;;;;;4940014;29;20094;-62
2022/01/17 06:34:57;;;;;;;15.57;8.23;;;;;;;;;;4936596;29;20051;-62
2022/01/17 06:37:23;;;;;;;14.55;7.70;;;;;;;;;;4938315;29;20154;-62
2022/01/17 06:39:50;;;;;;;15.77;7.82;;;;;;;;;;4933120;29;20135;-62
2022/01/17 06:42:17;;;;;;;15.30;8.70;;;;;;;;;;4939239;29;20465;-62
2022/01/17 06:44:43;;;;;;;15.57;7.93;;;;;;;;;;4923804;29;20052;-62
2022/01/17 06:47:11;;;;;;;16.92;8.27;;;;;;;;;;4939000;28;20130;-61
2022/01/17 06:49:38;;;;;;;15.95;7.43;;;;;;;;;;4937498;28;20515;-62
2022/01/17 06:52:05;;;;;;;16.85;9.32;;;;;;;;;;4936596;29;20126;-62
2022/01/17 06:54:31;;;;;;;18.38;8.68;;;;;;;;;;4942281;29;20122;-62
2022/01/17 06:56:58;;;;;;;18.08;9.02;;;;;;;;;;4943507;29;20070;-62
2022/01/17 06:59:25;;;;;;;18.55;8.95;;;;;;;;;;4943687;29;20122;-62
2022/01/17 07:01:51;;;;;;;17.25;8.82;;;;;;;;;;4936785;29;20078;-62
2022/01/17 07:04:19;;;;;;;18.35;9.15;;;;;;;;;;4936406;29;20131;-62
2022/01/17 07:06:46;;;;;;;18.55;9.30;;;;;;;;;;4939968;29;20075;-62
2022/01/17 07:09:16;;;;;;;16.80;8.65;;;;;;;;;;4940980;29;20066;-62
2022/01/17 07:11:43;;;;;;;16.25;8.80;;;;;;;;;;4946943;29;20048;-62
2022/01/17 07:14:10;;;;;;;16.55;9.07;;;;;;;;;;4939056;29;20070;-62
2022/01/17 07:16:37;;;;;;;16.35;8.75;;;;;;;;;;4940949;29;20048;-62
2022/01/17 07:19:04;;;;;;;15.93;9.13;;;;;;;;;;4922164;29;20384;-62
2022/01/17 07:21:33;;;;;;;19.95;10.27;;;;;;;;;;4940664;29;20477;-62
2022/01/17 07:24:00;;;;;;;18.67;10.80;;;;;;;;;;4937315;29;20079;-62
2022/01/17 07:26:26;;;;;;;18.67;9.30;;;;;;;;;;4935642;29;20083;-62
2022/01/17 07:28:53;;;;;;;16.52;9.45;;;;;;;;;;4939607;29;20040;-62
2022/01/17 07:31:20;;;;;;;17.33;9.27;;;;;;;;;;4939765;29;20490;-62
2022/01/17 07:33:47;;;;;;;17.48;9.95;;;;;;;;;;4938937;29;20239;-62
2022/01/17 07:36:18;;;;;;;15.77;9.13;;;;;;;;;;4924633;29;20142;-62
2022/01/17 07:38:46;;;;;;;17.77;8.88;;;;;;;;;;4923377;29;20043;-62
2022/01/17 07:41:13;;;;;;;20.77;10.00;;;;;;;;;;4936251;29;20473;-62
2022/01/17 07:43:41;;;;;;;20.42;9.70;;;;;;;;;;4947089;29;20079;-62
2022/01/17 07:46:13;;;;;;;22.20;11.05;;;;;;;;;;4936729;29;20059;-62
2022/01/17 07:48:58;;;;;;;20.38;10.23;;;;;;;;;;4935028;29;20039;-62
2022/01/17 07:51:26;;;;;;;24.00;11.82;;;;;;;;;;4901537;29;20051;-61
2022/01/17 07:53:56;;;;;;;21.95;10.80;;;;;;;;;;4901753;29;20138;-62
2022/01/17 07:56:23;;;;;;;21.77;10.38;;;;;;;;;;4900049;29;20067;-62
2022/01/17 07:58:49;;;;;;;21.23;11.05;;;;;;;;;;4900565;29;20158;-62
2022/01/17 08:01:16;;;;;;;17.75;10.27;;;;;;;;;;4900951;29;20051;-61
2022/01/17 08:03:43;;;;;;;16.27;8.95;;;;;;;;;;4907381;29;20159;-62
2022/01/17 08:06:10;;;;;;;14.52;7.90;;;;;;;;;;4909285;29;20134;-62
2022/01/17 08:08:36;;;;;;;15.63;8.60;;;;;;;;;;4910424;29;20044;-62
2022/01/17 08:11:04;;;;;;;17.67;9.07;;;;;;;;;;4914103;29;20159;-62
2022/01/17 08:13:31;;;;;;;17.65;9.13;;;;;;;;;;4906374;29;20128;-61
2022/01/17 08:15:58;;;;;;;17.08;9.07;;;;;;;;;;4908312;29;20462;-62
2022/01/17 08:18:24;;;;;;;17.48;8.43;;;;;;;;;;4908401;29;20061;-62
2022/01/17 08:20:51;;;;;;;14.98;8.82;;;;;;;;;;4908610;29;20067;-61
2022/01/17 08:23:17;;;;;;;18.42;10.13;;;;;;;;;;4910857;29;20168;-62
2022/01/17 08:25:44;;;;;;;16.95;8.50;;;;;;;;;;4915543;29;20098;-62
2022/01/17 08:28:13;;;;;;;17.00;8.85;;;;;;;;;;4904887;29;20116;-62
2022/01/17 08:30:40;;;;;;;16.17;8.45;;;;;;;;;;4911061;29;20520;-62
2022/01/17 08:33:06;;;;;;;14.05;8.40;;;;;;;;;;4906476;29;20126;-62
2022/01/17 08:35:33;;;;;;;14.40;8.63;;;;;;;;;;4905834;29;20136;-62
2022/01/17 08:37:59;;;;;;;15.25;8.70;;;;;;;;;;4910003;29;20055;-62
2022/01/17 08:40:26;;;;;;;15.95;8.55;;;;;;;;;;4909622;29;20139;-62
2022/01/17 08:42:53;;;;;;;19.13;8.55;;;;;;;;;;4907184;29;20144;-62
2022/01/17 08:45:23;;;;;;;18.40;7.80;;;;;;;;;;4911687;29;20048;-62
2022/01/17 08:47:51;;;;;;;17.20;8.65;;;;;;;;;;4909360;29;20080;-62
2022/01/17 08:50:27;;;;;;;14.80;8.35;;;;;;;;;;4927737;29;20055;-62
2022/01/17 08:52:54;;;;;;;14.60;7.60;;;;;;;;;;4950400;29;20043;-62
2022/01/17 08:55:22;;;;;;;19.48;8.63;;;;;;;;;;4940901;29;20130;-62
2022/01/17 08:57:49;;;;;;;14.68;8.15;;;;;;;;;;4937961;29;20047;-62
2022/01/17 09:00:18;;;;;;;15.32;7.45;;;;;;;;;;4945485;29;20134;-62
2022/01/17 09:02:46;;;;;;;13.77;7.88;;;;;;;;;;4943876;29;20516;-62
2022/01/17 09:05:13;;;;;;;16.13;8.65;;;;;;;;;;4946196;28;20123;-62
2022/01/17 09:07:39;;;;;;;14.48;7.93;;;;;;;;;;4944441;28;20074;-62
2022/01/17 09:10:07;;;;;;;13.23;8.27;;;;;;;;;;4946674;28;20138;-62
2022/01/17 09:12:33;;;;;;;13.93;8.35;;;;;;;;;;4944980;28;20130;-62
2022/01/17 09:15:00;;;;;;;12.77;7.65;;;;;;;;;;4939740;29;20083;-62
2022/01/17 09:17:26;;;;;;;17.63;9.35;;;;;;;;;;4938284;29;20448;-62
2022/01/17 09:19:54;;;;;;;14.20;7.18;;;;;;;;;;4952042;29;20634;-62
2022/01/17 09:22:21;;;;;;;13.02;7.50;;;;;;;;;;4950481;29;20206;-62
2022/01/17 09:24:47;;;;;;;15.45;7.70;;;;;;;;;;4946413;29;20075;-62
2022/01/17 09:27:16;;;;;;;13.23;7.93;;;;;;;;;;4938845;29;20036;-62
2022/01/17 09:29:43;;;;;;;12.35;6.85;;;;;;;;;;4936075;29;20039;-62
2022/01/17 09:32:09;;;;;;;11.85;6.60;;;;;;;;;;4945018;29;20480;-62
2022/01/17 09:34:36;;;;;;;14.73;8.02;;;;;;;;;;4937632;29;20536;-63
2022/01/17 09:37:04;;;;;;;14.45;7.85;;;;;;;;;;4940637;29;20133;-62
2022/01/17 09:39:31;;;;;;;14.57;8.05;;;;;;;;;;4942203;29;20451;-62
2022/01/17 09:41:57;;;;;;;14.00;7.32;;;;;;;;;;4948443;29;20131;-62
2022/01/17 09:44:24;;;;;;;12.73;6.63;;;;;;;;;;4946430;29;20070;-62
2022/01/17 09:46:54;;;;;;;15.80;6.82;;;;;;;;;;4947865;28;20150;-62
2022/01/17 09:49:29;;;;;;;13.02;7.50;;;;;;;;;;4944333;29;20044;-62
2022/01/17 09:52:08;;;;;;;14.70;8.27;;;;;;;;;;4939054;29;20488;-63
2022/01/17 09:54:37;;;;;;;10.75;6.18;;;;;;;;;;4948258;29;20126;-62
2022/01/17 09:57:08;;;;;;;12.45;6.32;;;;;;;;;;4947874;29;20059;-61
2022/01/17 09:59:36;;;;;;;15.27;7.28;;;;;;;;;;4943256;29;20055;-62
2022/01/17 10:02:03;;;;;;;12.52;6.47;;;;;;;;;;4941967;29;20135;-62
2022/01/17 10:04:30;;;;;;;14.05;7.03;;;;;;;;;;4944767;29;20075;-62
2022/01/17 10:06:58;;;;;;;12.32;6.65;;;;;;;;;;4940441;29;20049;-61
2022/01/17 10:09:27;;;;;;;11.75;6.85;;;;;;;;;;4926766;29;20043;-62
2022/01/17 10:12:08;;;;;;;10.65;6.03;;;;;;;;;;4923483;29;20044;-62
2022/01/17 10:14:37;;;;;;;12.75;6.38;;;;;;;;;;4938883;29;20131;-62
2022/01/17 10:17:08;;;;;;;10.32;5.55;;;;;;;;;;4946515;29;20102;-62
2022/01/17 10:19:36;;;;;;;10.38;5.45;;;;;;;;;;4940643;29;20572;-62
2022/01/17 10:22:08;;;;;;;11.07;5.68;;;;;;;;;;4940098;29;20043;-62
2022/01/17 10:24:43;;;;;;;9.80;5.40;;;;;;;;;;4939342;28;20110;-62
2022/01/17 10:27:26;;;;;;;8.23;4.70;;;;;;;;;;4938544;29;20490;-62
2022/01/17 10:35:26;;;;;;;9.05;5.25;;;;;;;;;;4946474;29;20584;-62
2022/01/17 10:37:57;;;;;;;11.60;5.20;;;;;;;;;;4940383;29;20130;-62
2022/01/17 10:40:25;;;;;;;11.60;5.38;;;;;;;;;;4939948;29;20142;-62
2022/01/17 10:42:54;;;;;;;11.52;5.18;;;;;;;;;;4942762;29;20071;-62
2022/01/17 10:45:23;;;;;;;8.40;4.55;;;;;;;;;;4944679;29;20063;-62
2022/01/17 10:47:51;;;;;;;10.30;4.90;;;;;;;;;;4944143;28;20123;-62
2022/01/17 10:50:20;;;;;;;10.00;5.40;;;;;;;;;;4938879;29;20054;-63
2022/01/17 10:52:49;;;;;;;9.38;4.85;;;;;;;;;;4940654;29;20047;-63
2022/01/17 10:55:17;;;;;;;9.77;5.07;;;;;;;;;;4938125;29;20548;-63
2022/01/17 10:57:45;;;;;;;9.18;5.22;;;;;;;;;;4940715;29;20126;-62
2022/01/17 11:00:15;;;;;;;8.02;5.13;;;;;;;;;;4937142;29;20062;-62
2022/01/17 11:02:45;;;;;;;9.73;5.55;;;;;;;;;;4937489;29;20139;-62
2022/01/17 11:05:15;;;;;;;10.02;5.10;;;;;;;;;;4938355;29;20126;-62
2022/01/17 11:07:45;;;;;;;9.13;4.88;;;;;;;;;;4943329;29;20043;-62
2022/01/17 11:10:17;;;;;;;9.50;5.70;;;;;;;;;;4944134;29;20127;-62
2022/01/17 11:12:43;;;;;;;10.10;4.80;;;;;;;;;;4941409;29;20122;-62
2022/01/17 11:15:12;;;;;;;8.63;4.70;;;;;;;;;;4936371;29;20170;-62
2022/01/17 11:17:47;;;;;;;8.75;5.10;;;;;;;;;;4944232;29;20467;-62
2022/01/17 11:20:14;;;;;;;9.65;4.65;;;;;;;;;;4940605;29;20050;-62
2022/01/17 11:22:43;;;;;;;8.30;4.68;;;;;;;;;;4936311;29;20134;-63
2022/01/17 11:25:12;;;;;;;7.65;4.28;;;;;;;;;;4940809;29;20071;-63
2022/01/17 11:27:39;;;;;;;8.05;4.03;;;;;;;;;;4936585;29;20130;-62
2022/01/17 11:30:07;;;;;;;5.30;2.72;;;;;;;;;;4922348;29;20039;-63
2022/01/17 11:32:33;;;;;;;4.20;2.25;;;;;;;;;;4938816;29;20126;-63
2022/01/17 11:35:03;;;;;;;5.55;2.50;;;;;;;;;;4945375;28;20051;-62
2022/01/17 11:37:33;;;;;;;4.95;2.20;;;;;;;;;;4940490;29;20082;-63
2022/01/17 11:40:00;;;;;;;4.40;2.17;;;;;;;;;;4938280;29;20123;-63
2022/01/17 11:42:40;;;;;;;5.57;3.15;;;;;;;;;;4939620;29;20078;-62
2022/01/17 11:45:35;;;;;;;5.55;2.88;;;;;;;;;;4940886;29;20123;-62
2022/01/17 11:48:03;;;;;;;4.32;2.40;;;;;;;;;;4940758;28;20524;-62
2022/01/17 11:50:43;;;;;;;4.60;2.20;;;;;;;;;;4934536;29;20091;-63
2022/01/17 11:53:44;;;;;;;3.33;1.73;;;;;;;;;;4941934;29;20074;-63
2022/01/17 11:56:11;;;;;;;4.50;2.58;;;;;;;;;;4933472;29;20135;-62
2022/01/17 11:58:41;;;;;;;3.58;1.88;;;;;;;;;;4936178;29;20075;-63
2022/01/17 12:01:20;;;;;;;3.67;1.95;;;;;;;;;;4938591;29;20082;-62
2022/01/17 12:03:48;;;;;;;3.28;1.92;;;;;;;;;;4922028;29;20051;-62
2022/01/17 12:06:28;;;;;;;6.35;2.45;;;;;;;;;;4943192;29;20504;-63
2022/01/17 12:09:23;;;;;;;4.53;2.63;;;;;;;;;;4946405;29;20079;-62
2022/01/17 12:11:55;;;;;;;6.50;2.50;;;;;;;;;;4933487;29;20047;-62
2022/01/17 12:14:27;;;;;;;3.55;2.05;;;;;;;;;;4937379;29;20122;-62
2022/01/17 12:16:54;;;;;;;4.15;1.98;;;;;;;;;;4934886;29;20047;-62
2022/01/17 12:19:21;;;;;;;5.15;2.63;;;;;;;;;;4936194;29;20082;-63
2022/01/17 12:21:57;;;;;;;4.90;2.30;;;;;;;;;;4938249;29;20467;-62
2022/01/17 12:24:41;;;;;;;5.03;3.10;;;;;;;;;;4940798;29;20058;-62
2022/01/17 12:27:19;;;;;;;6.35;3.13;;;;;;;;;;4937665;29;20079;-63
2022/01/17 12:29:51;;;;;;;9.70;3.80;;;;;;;;;;4936379;29;20507;-63
2022/01/17 12:32:48;;;;;;;9.60;4.40;;;;;;;;;;4942870;29;20071;-63
2022/01/17 12:35:18;;;;;;;6.32;3.60;;;;;;;;;;4937215;29;20098;-63
2022/01/17 12:37:48;;;;;;;4.75;2.70;;;;;;;;;;4925015;29;20039;-63
2022/01/17 12:40:18;;;;;;;11.57;5.55;;;;;;;;;;4937503;29;20492;-63
2022/01/17 12:42:53;;;;;;;7.32;2.72;;;;;;;;;;4936460;29;20090;-63
2022/01/17 12:45:21;;;;;;;18.70;6.10;;;;;;;;;;4938259;29;20087;-63
2022/01/17 12:47:49;;;;;;;5.80;3.40;;;;;;;;;;4938553;28;20413;-63
2022/01/17 12:50:16;;;;;;;5.47;2.15;;;;;;;;;;4940753;29;20541;-63
2022/01/17 12:52:42;;;;;;;3.95;2.42;;;;;;;;;;4942921;29;20123;-62
2022/01/17 12:55:11;;;;;;;5.28;2.20;;;;;;;;;;4948959;29;20138;-62
2022/01/17 12:57:43;;;;;;;4.47;2.35;;;;;;;;;;4938146;29;20154;-63
2022/01/17 13:00:11;;;;;;;3.95;2.03;;;;;;;;;;4944061;29;20051;-62
2022/01/17 13:02:46;;;;;;;3.55;1.90;;;;;;;;;;4949413;29;20127;-62
2022/01/17 13:05:13;;;;;;;4.03;1.77;;;;;;;;;;4942200;29;20162;-62
2022/01/17 13:07:41;;;;;;;4.80;1.88;;;;;;;;;;4948130;29;20078;-62
2022/01/17 13:10:12;;;;;;;2.92;1.58;;;;;;;;;;4944621;29;20122;-62
2022/01/17 13:12:44;;;;;;;5.03;1.90;;;;;;;;;;4937861;29;20079;-62
2022/01/17 13:15:12;;;;;;;2.42;1.27;;;;;;;;;;4941249;29;20168;-62
2022/01/17 13:17:39;;;;;;;3.13;1.60;;;;;;;;;;4938047;29;20094;-62
2022/01/17 13:20:07;;;;;;;2.78;1.45;;;;;;;;;;4946271;29;20043;-62
2022/01/17 13:22:38;;;;;;;2.45;1.38;;;;;;;;;;4947184;29;20142;-62
2022/01/17 13:25:07;;;;;;;2.90;1.45;;;;;;;;;;4943819;29;20055;-62
2022/01/17 13:27:37;;;;;;;4.82;1.30;;;;;;;;;;4940412;29;20130;-62
2022/01/17 13:30:08;;;;;;;3.33;1.60;;;;;;;;;;4944400;29;20126;-62
2022/01/17 13:32:37;;;;;;;3.67;1.50;;;;;;;;;;4930694;29;20047;-63
2022/01/17 13:35:09;;;;;;;2.78;1.45;;;;;;;;;;4943274;29;20138;-63
2022/01/17 13:37:36;;;;;;;4.00;1.77;;;;;;;;;;4935726;29;20061;-63
2022/01/17 13:40:16;;;;;;;5.40;1.70;;;;;;;;;;4938198;29;20478;-63
2022/01/17 13:42:55;;;;;;;3.15;1.50;;;;;;;;;;4943958;29;20501;-63
2022/01/17 13:45:41;;;;;;;3.22;1.50;;;;;;;;;;4939473;29;20078;-63
2022/01/17 13:48:11;;;;;;;3.40;1.60;;;;;;;;;;4938833;28;20462;-64
2022/01/17 13:50:38;;;;;;;2.30;1.40;;;;;;;;;;4942943;29;20055;-63
2022/01/17 13:53:05;;;;;;;4.75;1.77;;;;;;;;;;4938509;29;20454;-62
2022/01/17 13:55:39;;;;;;;3.45;1.38;;;;;;;;;;4946673;29;20043;-62
2022/01/17 13:58:08;;;;;;;3.58;1.75;;;;;;;;;;4948572;28;20125;-62
2022/01/17 14:00:38;;;;;;;3.75;1.50;;;;;;;;;;4941993;29;20047;-62
2022/01/17 14:03:06;;;;;;;3.50;1.85;;;;;;;;;;4938887;29;20138;-62
2022/01/17 14:05:35;;;;;;;3.20;1.83;;;;;;;;;;4941171;29;20066;-62
2022/01/17 14:08:22;;;;;;;3.30;1.63;;;;;;;;;;4943893;29;20130;-62
2022/01/17 14:11:00;;;;;;;4.78;2.17;;;;;;;;;;4942537;29;20055;-62
2022/01/17 14:13:34;;;;;;;4.68;1.60;;;;;;;;;;4942610;29;20067;-62
2022/01/17 14:16:20;;;;;;;6.13;2.50;;;;;;;;;;4947703;29;20043;-64
2022/01/17 14:18:48;;;;;;;4.68;2.15;;;;;;;;;;4936867;29;20386;-62
2022/01/17 14:21:36;;;;;;;4.70;2.45;;;;;;;;;;4936507;29;20103;-63
2022/01/17 14:24:13;;;;;;;4.80;2.08;;;;;;;;;;4939659;29;20047;-62
2022/01/17 14:26:41;;;;;;;3.45;1.90;;;;;;;;;;4939527;29;20048;-62
2022/01/17 14:29:13;;;;;;;3.40;1.60;;;;;;;;;;4943843;29;20126;-62
2022/01/17 14:31:41;;;;;;;2.78;1.40;;;;;;;;;;4938987;29;20421;-62
2022/01/17 14:34:13;;;;;;;4.70;1.83;;;;;;;;;;4939137;29;20450;-62
2022/01/17 14:36:40;;;;;;;13.63;6.07;;;;;;;;;;4941136;29;20082;-62
2022/01/17 14:39:08;;;;;;;7.53;3.38;;;;;;;;;;4942552;29;20467;-63
2022/01/17 14:41:36;;;;;;;4.53;2.42;;;;;;;;;;4938896;29;20082;-62
2022/01/17 14:44:05;;;;;;;3.38;2.13;;;;;;;;;;4943361;29;20044;-62
2022/01/17 14:46:33;;;;;;;3.47;2.13;;;;;;;;;;4940060;29;20098;-62
2022/01/17 14:49:00;;;;;;;4.80;2.13;;;;;;;;;;4934924;28;20078;-62
2022/01/17 14:51:29;;;;;;;4.65;2.20;;;;;;;;;;4944929;29;20142;-63
2022/01/17 14:53:58;;;;;;;4.60;2.20;;;;;;;;;;4943338;29;20130;-62
2022/01/17 15:02:00;;;;;;;4.15;1.65;;;;;;;;;;4939791;29;20086;-62
2022/01/17 15:04:27;;;;;;;7.22;2.72;;;;;;;;;;4945285;29;20050;-62
2022/01/17 15:06:53;;;;;;;3.38;1.77;;;;;;;;;;4935442;29;20139;-62
2022/01/17 15:09:20;;;;;;;2.65;1.42;;;;;;;;;;4943251;28;20088;-62
2022/01/17 15:11:47;;;;;;;3.65;1.70;;;;;;;;;;4942083;29;20040;-62
2022/01/17 15:14:13;;;;;;;3.60;2.00;;;;;;;;;;4942177;29;20146;-62
2022/01/17 15:16:40;;;;;;;4.40;2.17;;;;;;;;;;4946879;29;20105;-62
2022/01/17 15:19:08;;;;;;;3.95;2.33;;;;;;;;;;4945334;29;20043;-62
2022/01/17 15:21:34;;;;;;;3.50;1.85;;;;;;;;;;4934525;29;20086;-62
2022/01/17 15:24:01;;;;;;;3.72;2.20;;;;;;;;;;4937167;29;20401;-62